Time;durP1;ratioP1;P1;durP2;ratioP2;P2;SDS_P1;SDS_P2;PMS_P1;PMS_P2;Temp;Humidity;BMP_temperature;BMP_pressure;BME280_temperature;BME280_humidity;BME280_pressure;Samples;Min_cycle;Max_cycle;Signal;HPM_P1;HPM_P2
2022/06/06 00:01:13;;;;;;;5.63;5.13;;;19.30;99.90;;;;;;5020636;28;20455;-73
2022/06/06 00:03:47;;;;;;;8.10;5.73;;;19.30;99.90;;;;;;5009241;28;20574;-72
2022/06/06 00:06:16;;;;;;;8.13;5.30;;;19.20;99.90;;;;;;5013713;28;20476;-73
2022/06/06 00:08:43;;;;;;;5.47;5.03;;;19.10;99.90;;;;;;5014994;28;20509;-75
2022/06/06 00:11:12;;;;;;;8.43;6.13;;;19.20;99.90;;;;;;5014354;28;20532;-71
2022/06/06 00:13:46;;;;;;;6.70;6.10;;;19.20;99.90;;;;;;5020626;28;20563;-74
2022/06/06 00:16:13;;;;;;;6.83;5.83;;;19.20;99.90;;;;;;5012263;28;20570;-73
2022/06/06 00:18:40;;;;;;;6.47;5.97;;;19.20;99.90;;;;;;5003335;28;20490;-76
2022/06/06 00:21:11;;;;;;;7.70;7.00;;;19.20;99.90;;;;;;5013009;28;20899;-75
2022/06/06 00:23:39;;;;;;;7.83;7.13;;;19.10;99.90;;;;;;5015252;28;20518;-71
2022/06/06 00:26:08;;;;;;;7.57;6.83;;;19.20;99.90;;;;;;5011577;28;20913;-76
2022/06/06 00:28:35;;;;;;;6.77;6.07;;;19.20;99.90;;;;;;5014667;28;20455;-75
2022/06/06 00:34:48;;;;;;;6.57;5.97;;;19.20;99.90;;;;;;5012370;28;20450;-73
2022/06/06 00:36:48;;;;;;;6.93;6.33;;;19.00;99.90;;;;;;5007371;28;20527;-72
2022/06/06 00:39:19;;;;;;;7.97;7.13;;;18.70;99.90;;;;;;5017332;28;20465;-71
2022/06/06 00:41:48;;;;;;;6.73;6.13;;;18.70;99.90;;;;;;5009233;28;20472;-73
2022/06/06 00:44:17;;;;;;;8.47;7.67;;;18.60;99.90;;;;;;5006691;28;20858;-71
2022/06/06 00:46:50;;;;;;;6.73;6.13;;;18.60;99.90;;;;;;5012773;28;21021;-71
2022/06/06 00:49:25;;;;;;;6.77;6.17;;;18.50;99.90;;;;;;5005847;28;20976;-72
2022/06/06 00:51:54;;;;;;;7.20;6.53;;;18.30;99.90;;;;;;5010287;28;20522;-72
2022/06/06 00:54:22;;;;;;;7.27;6.30;;;18.20;99.90;;;;;;5012927;28;20535;-75
2022/06/06 00:56:55;;;;;;;5.63;5.13;;;18.20;99.90;;;;;;5012692;28;20448;-72
2022/06/06 00:59:27;;;;;;;6.17;5.57;;;18.10;99.90;;;;;;5014948;28;20436;-73
2022/06/06 01:01:57;;;;;;;5.57;4.97;;;18.10;99.90;;;;;;5018228;28;20482;-73
2022/06/06 01:04:27;;;;;;;4.03;3.63;;;18.10;99.90;;;;;;5017498;28;20451;-73
2022/06/06 01:06:55;;;;;;;3.70;3.40;;;18.10;99.90;;;;;;5014787;28;20499;-71
2022/06/06 01:09:25;;;;;;;3.67;3.37;;;18.10;99.90;;;;;;5036001;28;20461;-71
2022/06/06 01:11:56;;;;;;;3.20;3.00;;;18.10;99.90;;;;;;5034676;28;20482;-71
2022/06/06 01:14:25;;;;;;;4.07;3.43;;;18.10;99.90;;;;;;5030629;28;20430;-71
2022/06/06 01:17:01;;;;;;;3.53;3.23;;;18.10;99.90;;;;;;5043607;28;20451;-70
2022/06/06 01:20:14;;;;;;;2.87;2.53;;;18.10;99.90;;;;;;5021177;28;20455;-71
2022/06/06 01:23:31;;;;;;;7.17;2.80;;;18.10;99.90;;;;;;5025565;28;20491;-72
2022/06/06 01:26:17;;;;;;;3.90;3.10;;;18.00;99.90;;;;;;5006535;28;20550;-74
2022/06/06 01:28:52;;;;;;;6.17;3.37;;;18.10;99.90;;;;;;5014680;28;20444;-71
2022/06/06 01:31:26;;;;;;;6.20;4.83;;;18.10;99.90;;;;;;5026212;28;20451;-72
2022/06/06 01:33:56;;;;;;;5.30;4.90;;;18.00;99.90;;;;;;5015647;28;20451;-74
2022/06/06 01:36:24;;;;;;;5.30;4.80;;;18.00;99.90;;;;;;5010930;28;20869;-76
2022/06/06 01:38:51;;;;;;;6.10;5.50;;;18.10;99.90;;;;;;5007833;28;20550;-74
2022/06/06 01:41:26;;;;;;;6.87;5.17;;;18.10;99.90;;;;;;5011578;28;20476;-72
2022/06/06 01:43:58;;;;;;;7.95;6.70;;;18.10;99.90;;;;;;5012147;28;21046;-73
2022/06/06 01:46:29;;;;;;;13.17;6.93;;;18.10;99.90;;;;;;5012358;28;20227;-74
2022/06/06 01:48:57;;;;;;;7.90;7.20;;;18.10;99.90;;;;;;5012948;28;20458;-73
2022/06/06 01:51:28;;;;;;;8.90;7.47;;;18.00;99.90;;;;;;5011420;28;20447;-73
2022/06/06 01:53:56;;;;;;;8.27;6.83;;;18.00;99.90;;;;;;5012034;28;20451;-74
2022/06/06 01:56:25;;;;;;;7.13;6.43;;;18.00;99.90;;;;;;5015358;28;20507;-72
2022/06/06 01:58:55;;;;;;;6.10;5.60;;;18.00;99.90;;;;;;5021645;28;20543;-74
2022/06/06 02:01:22;;;;;;;7.13;6.43;;;17.90;99.90;;;;;;5014644;28;20538;-73
2022/06/06 02:03:49;;;;;;;6.93;6.23;;;17.90;99.90;;;;;;5022828;28;20486;-76
2022/06/06 02:06:16;;;;;;;6.73;6.00;;;17.90;99.90;;;;;;5014388;28;20572;-77
2022/06/06 02:08:47;;;;;;;7.50;6.80;;;18.00;99.90;;;;;;5009392;28;20886;-77
2022/06/06 02:11:15;;;;;;;7.72;6.93;;;17.90;99.90;;;;;;5022116;28;20478;-72
2022/06/06 02:13:43;;;;;;;8.70;7.90;;;17.90;99.90;;;;;;5019450;28;20228;-73
2022/06/06 02:16:11;;;;;;;7.10;6.50;;;17.90;99.90;;;;;;5016382;28;20853;-75
2022/06/06 02:18:38;;;;;;;7.50;6.80;;;17.90;99.90;;;;;;5016051;28;20450;-74
2022/06/06 02:21:06;;;;;;;7.43;6.73;;;17.90;99.90;;;;;;5015100;28;20976;-75
2022/06/06 02:23:33;;;;;;;8.60;7.70;;;17.90;99.90;;;;;;5015335;28;20904;-75
2022/06/06 02:26:00;;;;;;;7.77;7.07;;;17.90;99.90;;;;;;5014653;28;21029;-76
2022/06/06 02:28:27;;;;;;;7.30;6.60;;;17.90;99.90;;;;;;5010965;28;20529;-73
2022/06/06 02:30:54;;;;;;;7.67;6.97;;;17.80;99.90;;;;;;5014913;28;20470;-75
2022/06/06 02:33:22;;;;;;;7.47;6.83;;;17.90;99.90;;;;;;5015000;28;20584;-73
2022/06/06 02:35:49;;;;;;;7.60;6.80;;;17.80;99.90;;;;;;5016829;28;20532;-75
2022/06/06 02:38:16;;;;;;;6.80;6.10;;;17.80;99.90;;;;;;5015528;28;20454;-74
2022/06/06 02:40:44;;;;;;;8.17;6.23;;;17.70;99.90;;;;;;5014879;28;21029;-73
2022/06/06 02:43:13;;;;;;;7.30;5.70;;;17.70;99.90;;;;;;5007954;28;20500;-76
2022/06/06 02:45:40;;;;;;;7.03;6.33;;;17.60;99.90;;;;;;5014416;28;20581;-75
2022/06/06 02:48:09;;;;;;;5.88;5.38;;;17.60;99.90;;;;;;5011635;28;20463;-73
2022/06/06 02:50:38;;;;;;;7.73;5.93;;;17.60;99.90;;;;;;5022685;28;20203;-73
2022/06/06 02:53:06;;;;;;;11.23;6.77;;;17.70;99.90;;;;;;5017707;28;20546;-75
2022/06/06 02:55:34;;;;;;;6.90;5.90;;;17.70;99.90;;;;;;5015919;28;20439;-73
2022/06/06 02:58:01;;;;;;;5.50;5.00;;;17.70;99.90;;;;;;5019960;28;20482;-72
2022/06/06 03:00:32;;;;;;;6.83;6.13;;;17.70;99.90;;;;;;5014616;28;20448;-74
2022/06/06 03:03:00;;;;;;;6.80;6.07;;;17.70;99.90;;;;;;5014609;28;20478;-72
2022/06/06 03:05:38;;;;;;;5.87;5.30;;;17.70;99.90;;;;;;5006740;28;20491;-73
2022/06/06 03:08:17;;;;;;;7.03;6.38;;;17.70;99.90;;;;;;5014209;28;20454;-72
2022/06/06 03:10:53;;;;;;;8.60;6.90;;;17.70;99.90;;;;;;5012445;28;20283;-74
2022/06/06 03:13:39;;;;;;;7.17;6.53;;;17.60;99.90;;;;;;5012513;28;20572;-74
2022/06/06 03:22:11;;;;;;;6.57;5.97;;;17.50;99.90;;;;;;5012338;28;20477;-72
2022/06/06 03:24:52;;;;;;;6.97;6.10;;;17.50;99.90;;;;;;5012947;28;20221;-74
2022/06/06 03:27:28;;;;;;;10.73;9.27;;;17.50;99.90;;;;;;5015146;28;20530;-72
2022/06/06 03:30:04;;;;;;;9.68;7.55;;;17.50;99.90;;;;;;5016170;28;20468;-74
2022/06/06 03:32:56;;;;;;;12.38;8.48;;;17.50;99.90;;;;;;5023564;28;20408;-73
2022/06/06 03:35:34;;;;;;;10.80;9.70;;;17.50;99.90;;;;;;5014715;28;20583;-76
2022/06/06 03:38:05;;;;;;;10.05;8.95;;;17.50;99.90;;;;;;5023411;28;20505;-73
2022/06/06 03:40:43;;;;;;;10.70;8.80;;;17.50;99.90;;;;;;5033409;28;20210;-72
2022/06/06 03:43:22;;;;;;;12.80;9.93;;;17.50;99.90;;;;;;5028980;28;20500;-72
2022/06/06 03:45:58;;;;;;;12.53;11.13;;;17.50;99.90;;;;;;5031077;28;20220;-73
2022/06/06 03:48:37;;;;;;;13.63;11.70;;;17.50;99.90;;;;;;5030083;28;20449;-73
2022/06/06 03:51:14;;;;;;;13.57;11.57;;;17.50;99.90;;;;;;5035435;28;20441;-73
2022/06/06 03:53:56;;;;;;;16.13;11.83;;;17.40;99.90;;;;;;5038039;28;20466;-72
2022/06/06 03:56:48;;;;;;;17.83;13.03;;;17.40;99.90;;;;;;5025178;28;20857;-72
2022/06/06 03:59:16;;;;;;;16.95;13.00;;;17.40;99.90;;;;;;5017385;28;20481;-72
2022/06/06 04:01:44;;;;;;;15.63;12.87;;;17.40;99.90;;;;;;5003235;28;20581;-74
2022/06/06 04:04:12;;;;;;;18.40;14.87;;;17.40;99.90;;;;;;5020569;28;20554;-73
2022/06/06 04:06:40;;;;;;;18.63;15.20;;;17.40;99.90;;;;;;5015049;28;20500;-72
2022/06/06 04:09:07;;;;;;;18.87;14.33;;;17.40;99.90;;;;;;5014535;28;20455;-74
2022/06/06 04:11:52;;;;;;;20.67;14.85;;;17.40;99.90;;;;;;5021702;28;20453;-73
2022/06/06 04:14:37;;;;;;;23.80;17.70;;;17.40;99.90;;;;;;5014615;28;20224;-75
2022/06/06 04:17:18;;;;;;;22.02;17.00;;;17.40;99.90;;;;;;5015285;28;20863;-74
2022/06/06 04:19:53;;;;;;;22.65;16.15;;;17.30;99.90;;;;;;5014246;28;20504;-74
2022/06/06 04:22:28;;;;;;;24.55;16.23;;;17.40;99.90;;;;;;5009404;28;20238;-74
2022/06/06 04:25:10;;;;;;;25.42;16.52;;;17.40;99.90;;;;;;5014303;28;20294;-74
2022/06/06 04:27:47;;;;;;;26.80;16.20;;;17.40;99.90;;;;;;5013889;28;20585;-75
2022/06/06 04:30:21;;;;;;;26.42;17.35;;;17.40;99.90;;;;;;5011938;28;20210;-75
2022/06/06 04:33:02;;;;;;;26.63;16.10;;;17.40;99.90;;;;;;5014360;28;20219;-76
2022/06/06 04:35:35;;;;;;;23.57;15.70;;;17.30;99.90;;;;;;5006398;28;20520;-74
2022/06/06 04:38:09;;;;;;;24.97;16.77;;;17.40;99.90;;;;;;5016081;28;20496;-73
2022/06/06 04:40:43;;;;;;;25.75;17.67;;;17.40;99.90;;;;;;5021179;28;20780;-77
2022/06/06 04:43:18;;;;;;;30.17;17.10;;;17.30;99.90;;;;;;5015850;28;20230;-73
2022/06/06 04:45:51;;;;;;;26.23;16.80;;;17.40;99.90;;;;;;5025238;28;20230;-73
2022/06/06 04:48:21;;;;;;;26.02;16.40;;;17.30;99.90;;;;;;5034486;28;20473;-71
2022/06/06 04:50:48;;;;;;;30.53;19.90;;;17.40;99.90;;;;;;5034383;28;20204;-75
2022/06/06 04:53:19;;;;;;;39.10;21.90;;;17.40;99.90;;;;;;5018300;28;20557;-74
2022/06/06 04:55:48;;;;;;;31.37;19.00;;;17.20;99.90;;;;;;5029071;28;20497;-73
2022/06/06 04:58:18;;;;;;;34.50;23.30;;;17.20;99.90;;;;;;5032789;28;20484;-74
2022/06/06 05:00:47;;;;;;;32.83;21.60;;;17.00;99.90;;;;;;5027866;28;20453;-74
2022/06/06 05:03:14;;;;;;;35.77;21.90;;;16.90;99.90;;;;;;5032002;28;20470;-73
2022/06/06 05:05:57;;;;;;;34.83;22.65;;;16.90;99.90;;;;;;5048424;28;20500;-74
2022/06/06 05:08:43;;;;;;;34.90;21.85;;;16.90;99.90;;;;;;5042750;28;20661;-75
2022/06/06 05:11:23;;;;;;;32.63;20.50;;;16.90;99.90;;;;;;5022746;28;20278;-76
2022/06/06 05:14:21;;;;;;;34.38;22.50;;;16.90;99.90;;;;;;5014920;28;20604;-72
2022/06/06 05:17:15;;;;;;;35.30;20.20;;;16.80;99.90;;;;;;5022407;28;20290;-76
2022/06/06 05:19:56;;;;;;;33.55;22.70;;;16.80;99.90;;;;;;5014606;28;20238;-75
2022/06/06 05:23:05;;;;;;;29.93;18.97;;;16.80;99.90;;;;;;5022855;28;20222;-76
2022/06/06 05:25:50;;;;;;;30.30;19.33;;;16.80;99.90;;;;;;5007480;28;20481;-73
2022/06/06 05:28:48;;;;;;;36.47;20.35;;;16.70;99.90;;;;;;5024936;28;20454;-71
2022/06/06 05:31:29;;;;;;;28.97;20.27;;;16.80;99.90;;;;;;5029298;28;20207;-74
2022/06/06 05:34:04;;;;;;;25.08;18.20;;;16.70;99.90;;;;;;5029191;28;20482;-75
2022/06/06 05:36:46;;;;;;;34.28;20.70;;;16.70;99.90;;;;;;5032046;28;20222;-73
2022/06/06 05:39:40;;;;;;;30.13;19.05;;;16.70;99.90;;;;;;5021834;28;20204;-73
2022/06/06 05:42:19;;;;;;;28.08;17.00;;;16.80;99.90;;;;;;5032542;28;20274;-73
2022/06/06 05:44:59;;;;;;;21.48;16.55;;;16.80;99.90;;;;;;5041014;28;20205;-72
2022/06/06 05:47:36;;;;;;;22.55;17.15;;;16.70;99.90;;;;;;5018104;28;20245;-75
2022/06/06 05:50:25;;;;;;;19.90;14.60;;;16.80;99.90;;;;;;5025478;28;20258;-75
2022/06/06 05:53:20;;;;;;;21.98;15.43;;;16.90;99.90;;;;;;5018231;28;20280;-73
2022/06/06 05:56:22;;;;;;;18.85;14.85;;;16.90;99.90;;;;;;5022696;28;20229;-74
2022/06/06 05:59:05;;;;;;;21.65;14.07;;;17.00;99.90;;;;;;5016458;28;20238;-74
2022/06/06 06:01:53;;;;;;;17.77;13.38;;;17.00;99.90;;;;;;5020410;28;20288;-76
2022/06/06 06:04:36;;;;;;;17.20;13.57;;;17.10;99.90;;;;;;5016309;28;20567;-71
2022/06/06 06:07:13;;;;;;;19.47;14.07;;;17.10;99.90;;;;;;5020065;28;20246;-71
2022/06/06 06:10:02;;;;;;;17.73;12.87;;;17.20;99.90;;;;;;5025501;28;20501;-75
2022/06/06 06:12:52;;;;;;;16.90;13.20;;;17.30;99.90;;;;;;5014838;28;20557;-75
2022/06/06 06:15:29;;;;;;;18.07;13.13;;;17.30;99.90;;;;;;5024877;28;20451;-76
2022/06/06 06:17:57;;;;;;;19.57;12.67;;;17.30;99.90;;;;;;5018816;28;20870;-76
2022/06/06 06:20:29;;;;;;;18.10;11.97;;;17.40;99.90;;;;;;5023494;28;20542;-74
2022/06/06 06:22:59;;;;;;;13.43;10.00;;;17.30;99.90;;;;;;5015723;28;20570;-78
2022/06/06 06:25:27;;;;;;;13.05;10.15;;;17.40;99.90;;;;;;5016641;28;20582;-73
2022/06/06 06:28:05;;;;;;;14.23;10.13;;;17.50;99.90;;;;;;5017547;28;20722;-76
2022/06/06 06:30:41;;;;;;;16.00;10.50;;;17.40;99.90;;;;;;5020348;28;20494;-72
2022/06/06 06:33:23;;;;;;;16.03;9.63;;;17.40;99.90;;;;;;5024781;28;20502;-75
2022/06/06 06:36:04;;;;;;;11.67;9.23;;;17.30;99.90;;;;;;5022644;28;20479;-73
2022/06/06 06:38:56;;;;;;;12.30;9.20;;;17.30;99.90;;;;;;5021541;28;20526;-71
2022/06/06 06:41:32;;;;;;;13.65;9.13;;;17.30;99.90;;;;;;5016056;28;20559;-74
2022/06/06 06:44:08;;;;;;;14.03;8.33;;;17.30;99.90;;;;;;5017522;28;20287;-71
2022/06/06 06:46:41;;;;;;;11.63;8.30;;;17.30;99.90;;;;;;5019753;28;20454;-74
2022/06/06 06:49:23;;;;;;;12.73;8.40;;;17.40;99.90;;;;;;5015472;28;20587;-73
2022/06/06 06:52:03;;;;;;;13.73;7.97;;;17.40;99.90;;;;;;5006091;28;20789;-72
2022/06/06 06:54:44;;;;;;;11.23;8.53;;;17.30;99.90;;;;;;5013209;28;20498;-75
2022/06/06 06:57:26;;;;;;;9.97;7.50;;;17.30;99.90;;;;;;5013112;28;20489;-73
2022/06/06 07:00:04;;;;;;;10.80;8.50;;;17.30;99.90;;;;;;5014168;28;20554;-72
2022/06/06 07:08:41;;;;;;;9.27;6.93;;;18.10;99.90;;;;;;5016355;28;20486;-77
2022/06/06 07:11:30;;;;;;;8.43;7.07;;;18.70;99.90;;;;;;5014462;28;20785;-75
2022/06/06 07:14:18;;;;;;;8.90;7.73;;;19.20;99.90;;;;;;5009979;28;20544;-74
2022/06/06 07:16:50;;;;;;;16.57;8.70;;;19.40;99.90;;;;;;5011472;28;20530;-73
2022/06/06 07:19:20;;;;;;;10.77;8.57;;;19.70;99.90;;;;;;5016664;28;20481;-73
2022/06/06 07:21:49;;;;;;;10.90;7.87;;;20.00;99.90;;;;;;5023464;28;20500;-73
2022/06/06 07:24:20;;;;;;;10.93;8.33;;;20.40;99.90;;;;;;5018706;28;20468;-72
2022/06/06 07:26:51;;;;;;;9.23;8.10;;;20.10;99.90;;;;;;5020734;28;21158;-75
2022/06/06 07:29:21;;;;;;;16.77;9.50;;;20.00;99.90;;;;;;5009003;28;20455;-77
2022/06/06 07:32:08;;;;;;;10.87;8.10;;;19.70;99.90;;;;;;5016324;28;20489;-75
2022/06/06 07:34:57;;;;;;;14.50;10.03;;;19.30;99.90;;;;;;5008478;28;20494;-76
2022/06/06 07:37:43;;;;;;;17.90;8.90;;;19.30;99.90;;;;;;5008260;28;20926;-75
2022/06/06 07:40:25;;;;;;;10.30;8.87;;;18.90;99.90;;;;;;5013459;28;20451;-77
2022/06/06 07:43:12;;;;;;;11.70;9.07;;;18.90;99.90;;;;;;5010663;28;21116;-76
2022/06/06 07:45:45;;;;;;;11.83;10.23;;;18.70;99.90;;;;;;5011752;28;20518;-77
2022/06/06 07:48:23;;;;;;;15.57;9.93;;;18.60;99.90;;;;;;5011870;28;20482;-74
2022/06/06 07:51:01;;;;;;;13.60;9.00;;;18.60;99.90;;;;;;5012283;28;20531;-74
2022/06/06 07:53:40;;;;;;;11.67;8.80;;;18.70;99.90;;;;;;5013883;28;20941;-74
2022/06/06 07:56:16;;;;;;;15.93;8.90;;;19.20;99.90;;;;;;5013949;28;20444;-74
2022/06/06 07:58:55;;;;;;;10.30;8.87;;;19.80;99.90;;;;;;5009864;28;20491;-74
2022/06/06 08:01:30;;;;;;;10.80;9.10;;;20.20;99.90;;;;;;5010755;28;20444;-75
2022/06/06 08:04:09;;;;;;;13.07;9.60;;;20.20;99.90;;;;;;5015819;28;20449;-72
2022/06/06 08:06:41;;;;;;;12.20;9.47;;;19.90;99.90;;;;;;5031829;28;20447;-77
2022/06/06 08:09:23;;;;;;;10.93;9.27;;;19.90;99.90;;;;;;5016164;28;20458;-74
2022/06/06 08:12:12;;;;;;;10.03;8.80;;;19.90;99.90;;;;;;5013475;28;20551;-75
2022/06/06 08:14:49;;;;;;;15.53;9.43;;;19.80;99.90;;;;;;5014032;28;20463;-74
2022/06/06 08:17:26;;;;;;;14.80;10.70;;;19.50;99.90;;;;;;5018011;28;20448;-74
2022/06/06 08:20:06;;;;;;;15.17;9.87;;;19.20;99.90;;;;;;5011728;28;20515;-76
2022/06/06 08:22:35;;;;;;;14.47;10.83;;;19.20;99.90;;;;;;5009229;28;20467;-73
2022/06/06 08:25:07;;;;;;;14.50;10.23;;;19.20;99.90;;;;;;5012732;28;20436;-74
2022/06/06 08:27:36;;;;;;;16.40;11.00;;;19.10;99.90;;;;;;5007255;28;20507;-73
2022/06/06 08:30:05;;;;;;;13.33;10.43;;;19.00;99.90;;;;;;5012996;28;20523;-72
2022/06/06 08:32:32;;;;;;;13.83;10.63;;;18.90;99.90;;;;;;5013029;28;20521;-76
2022/06/06 08:34:59;;;;;;;16.97;12.57;;;18.90;99.90;;;;;;5012921;28;20931;-74
2022/06/06 08:37:50;;;;;;;12.30;10.30;;;18.90;99.90;;;;;;5012208;28;20585;-74
2022/06/06 08:40:45;;;;;;;13.90;10.37;;;18.70;99.90;;;;;;5012486;28;20444;-72
2022/06/06 08:43:19;;;;;;;14.23;10.30;;;18.70;99.90;;;;;;5004498;28;20475;-74
2022/06/06 08:45:52;;;;;;;18.57;11.63;;;18.70;99.90;;;;;;5008913;28;20917;-74
2022/06/06 08:48:43;;;;;;;16.13;11.93;;;18.80;99.90;;;;;;5006667;28;20571;-76
2022/06/06 08:51:23;;;;;;;13.90;10.40;;;19.20;99.90;;;;;;5010389;28;20490;-73
2022/06/06 08:54:27;;;;;;;15.00;11.30;;;20.10;99.90;;;;;;5010124;28;20519;-75
2022/06/06 08:57:09;;;;;;;15.00;10.77;;;21.30;99.90;;;;;;5010987;28;20869;-75
2022/06/06 09:00:06;;;;;;;15.03;10.43;;;21.90;99.90;;;;;;5010610;28;20446;-74
2022/06/06 09:03:18;;;;;;;13.00;9.77;;;23.50;99.90;;;;;;5010006;28;20852;-73
2022/06/06 09:06:24;;;;;;;11.73;9.77;;;24.70;99.90;;;;;;5012407;28;20478;-74
2022/06/06 09:09:27;;;;;;;11.03;9.10;;;25.30;97.50;;;;;;5011650;28;20490;-76
2022/06/06 09:12:22;;;;;;;12.97;9.20;;;26.10;95.10;;;;;;5013186;28;20578;-77
2022/06/06 09:15:33;;;;;;;10.87;8.53;;;26.90;93.50;;;;;;5012269;28;20448;-74
2022/06/06 09:18:43;;;;;;;11.40;8.00;;;27.50;92.10;;;;;;5019625;28;20475;-73
2022/06/06 09:21:51;;;;;;;13.47;9.43;;;26.40;90.90;;;;;;5023916;28;20522;-74
2022/06/06 09:25:05;;;;;;;12.17;9.47;;;26.70;91.60;;;;;;5023339;28;20455;-77
2022/06/06 09:28:06;;;;;;;10.67;9.30;;;25.60;92.70;;;;;;5005770;28;20603;-74
2022/06/06 09:31:14;;;;;;;12.40;9.93;;;24.10;93.30;;;;;;4998856;28;20443;-74
2022/06/06 09:34:22;;;;;;;13.63;10.10;;;24.20;94.40;;;;;;4965008;28;20475;-71
2022/06/06 09:37:14;;;;;;;9.90;7.80;;;24.60;93.00;;;;;;5004460;28;20443;-72
2022/06/06 09:39:56;;;;;;;12.93;9.20;;;24.30;92.30;;;;;;5000657;28;20455;-73
2022/06/06 09:42:40;;;;;;;9.70;7.40;;;23.80;92.40;;;;;;5000225;28;20467;-75
2022/06/06 09:45:30;;;;;;;9.00;7.40;;;24.40;92.10;;;;;;4999232;28;20478;-76
2022/06/06 09:48:29;;;;;;;12.50;8.43;;;25.50;90.70;;;;;;4998627;28;20586;-75
2022/06/06 09:51:20;;;;;;;12.70;7.70;;;25.50;89.40;;;;;;4997454;28;20827;-72
2022/06/06 10:00:50;;;;;;;8.13;7.27;;;25.70;86.90;;;;;;4996584;28;20434;-73
2022/06/06 10:04:07;;;;;;;6.77;6.07;;;24.50;89.10;;;;;;5015166;28;20806;-75
2022/06/06 10:07:08;;;;;;;6.20;5.00;;;24.50;88.70;;;;;;4981578;28;20515;-75
2022/06/06 10:10:00;;;;;;;7.90;7.07;;;25.30;87.70;;;;;;5002808;28;20487;-74
2022/06/06 10:13:03;;;;;;;6.50;5.07;;;25.90;84.40;;;;;;5013257;28;20818;-74
2022/06/06 10:15:40;;;;;;;5.30;4.57;;;26.30;82.90;;;;;;5021683;28;20201;-74
2022/06/06 10:18:41;;;;;;;5.40;4.27;;;26.70;78.10;;;;;;5015220;28;20498;-73
2022/06/06 10:21:39;;;;;;;5.20;4.20;;;27.00;75.70;;;;;;5014044;28;20518;-71
2022/06/06 10:24:46;;;;;;;4.53;4.10;;;27.20;76.30;;;;;;5012811;28;20515;-73
2022/06/06 10:27:26;;;;;;;5.33;4.50;;;26.90;77.30;;;;;;5010549;28;20567;-73
2022/06/06 10:30:14;;;;;;;4.23;3.83;;;26.10;76.40;;;;;;5011634;28;20456;-74
2022/06/06 10:33:20;;;;;;;5.60;3.93;;;25.10;78.40;;;;;;5011851;28;20466;-73
2022/06/06 10:36:05;;;;;;;9.20;5.40;;;24.30;81.70;;;;;;5015098;28;20455;-73
2022/06/06 10:39:05;;;;;;;6.07;5.13;;;24.10;84.30;;;;;;5016204;28;20435;-74
2022/06/06 10:41:52;;;;;;;5.77;5.17;;;23.50;85.40;;;;;;5014249;28;20498;-74
2022/06/06 10:44:42;;;;;;;5.93;4.73;;;23.00;87.10;;;;;;5020525;28;20449;-72
2022/06/06 10:47:21;;;;;;;7.40;5.87;;;22.90;89.80;;;;;;5017330;28;20447;-74
2022/06/06 10:50:00;;;;;;;9.47;5.80;;;22.60;90.40;;;;;;5006951;28;20523;-73
2022/06/06 10:53:05;;;;;;;8.77;5.90;;;22.80;90.60;;;;;;5014373;28;20594;-75
2022/06/06 10:56:06;;;;;;;5.20;4.70;;;22.90;90.90;;;;;;5012661;28;20903;-72
2022/06/06 10:59:01;;;;;;;4.70;4.20;;;23.00;90.60;;;;;;5013280;28;20444;-73
2022/06/06 11:01:56;;;;;;;4.20;3.83;;;23.30;87.80;;;;;;5010618;28;20534;-73
2022/06/06 11:04:56;;;;;;;5.13;4.47;;;23.30;86.70;;;;;;5009154;28;20448;-73
2022/06/06 11:08:02;;;;;;;4.90;4.47;;;23.10;86.90;;;;;;5015344;28;20455;-73
2022/06/06 11:11:07;;;;;;;6.37;4.70;;;22.80;88.40;;;;;;5009628;28;20460;-73
2022/06/06 11:13:49;;;;;;;4.10;3.30;;;22.50;88.20;;;;;;5012062;28;20476;-73
2022/06/06 11:16:50;;;;;;;4.37;3.97;;;22.40;88.30;;;;;;5012436;28;20452;-76
2022/06/06 11:19:47;;;;;;;4.47;4.07;;;22.50;88.60;;;;;;5012297;28;20432;-75
2022/06/06 11:22:27;;;;;;;4.50;2.97;;;22.00;88.00;;;;;;5014719;28;20482;-74
2022/06/06 11:25:06;;;;;;;4.60;3.03;;;21.70;87.90;;;;;;5017515;28;20506;-74
2022/06/06 11:28:12;;;;;;;5.13;3.60;;;21.60;89.10;;;;;;5010779;28;20520;-74
2022/06/06 11:31:08;;;;;;;3.00;2.70;;;21.50;90.30;;;;;;5004842;28;20541;-75
2022/06/06 11:34:16;;;;;;;4.50;3.30;;;21.70;90.90;;;;;;5013431;28;20475;-73
2022/06/06 11:37:24;;;;;;;5.40;3.60;;;21.60;93.90;;;;;;4999940;28;20946;-73
2022/06/06 11:40:21;;;;;;;8.10;3.80;;;21.70;96.70;;;;;;5008283;28;20450;-76
2022/06/06 11:43:28;;;;;;;5.10;3.40;;;22.00;95.90;;;;;;4989858;28;20543;-76
2022/06/06 11:46:43;;;;;;;3.43;3.13;;;22.60;94.80;;;;;;5004748;28;20958;-73
2022/06/06 11:49:53;;;;;;;4.13;3.43;;;22.10;90.90;;;;;;5014386;28;20514;-73
2022/06/06 11:52:59;;;;;;;2.83;2.17;;;21.70;92.40;;;;;;4990705;28;20898;-73
2022/06/06 11:55:58;;;;;;;4.87;3.50;;;22.10;92.90;;;;;;5011588;28;20539;-74
2022/06/06 11:59:03;;;;;;;3.37;2.70;;;22.20;91.10;;;;;;5007111;28;20778;-74
2022/06/06 12:01:55;;;;;;;2.97;2.77;;;22.10;90.50;;;;;;5013669;28;20478;-76
2022/06/06 12:04:50;;;;;;;3.10;2.80;;;22.40;90.40;;;;;;5021265;28;20432;-74
2022/06/06 12:07:43;;;;;;;3.27;2.53;;;22.50;88.70;;;;;;5019535;28;20460;-75
2022/06/06 12:10:17;;;;;;;3.97;2.23;;;22.50;88.60;;;;;;5021284;28;20539;-77
2022/06/06 12:13:21;;;;;;;3.10;2.20;;;22.80;88.20;;;;;;5030961;28;20509;-75
2022/06/06 12:16:17;;;;;;;13.13;2.57;;;22.80;87.70;;;;;;5008593;28;20518;-75
2022/06/06 12:18:55;;;;;;;5.17;2.40;;;22.70;87.20;;;;;;5024380;28;20444;-77
2022/06/06 12:22:13;;;;;;;4.33;2.00;;;22.60;86.80;;;;;;5033208;28;20474;-73
2022/06/06 12:25:10;;;;;;;4.90;2.23;;;22.50;87.30;;;;;;5004066;28;20443;-74
2022/06/06 12:27:59;;;;;;;2.60;2.23;;;22.70;86.70;;;;;;5024721;28;20849;-73
2022/06/06 12:30:59;;;;;;;2.27;1.70;;;22.50;84.80;;;;;;5020549;28;20945;-73
2022/06/06 12:33:34;;;;;;;2.57;1.80;;;22.40;85.00;;;;;;5014209;28;20467;-75
2022/06/06 12:36:10;;;;;;;6.07;1.90;;;22.20;85.10;;;;;;5003310;28;20517;-76
2022/06/06 12:38:53;;;;;;;2.70;1.60;;;22.10;84.00;;;;;;5013233;28;20439;-76
2022/06/06 12:41:33;;;;;;;2.90;1.90;;;22.30;83.80;;;;;;5015586;28;20550;-75
2022/06/06 12:44:05;;;;;;;1.73;1.53;;;22.40;83.60;;;;;;5010701;28;20451;-74
2022/06/06 12:47:07;;;;;;;2.60;2.00;;;22.50;83.80;;;;;;5014503;28;20451;-75
2022/06/06 12:50:00;;;;;;;1.50;1.40;;;22.80;82.50;;;;;;5003854;28;20579;-74
2022/06/06 12:53:14;;;;;;;2.30;1.67;;;23.00;82.40;;;;;;5006159;28;20475;-75
2022/06/06 12:56:15;;;;;;;3.20;1.90;;;23.20;81.10;;;;;;5008489;28;20542;-74
2022/06/06 12:58:45;;;;;;;1.93;1.60;;;22.80;80.70;;;;;;5013567;28;20687;-74
2022/06/06 13:01:39;;;;;;;1.83;1.47;;;23.00;81.20;;;;;;5005458;28;20648;-75
2022/06/06 13:04:42;;;;;;;5.43;2.17;;;23.10;80.80;;;;;;5020670;28;20474;-75
2022/06/06 13:07:33;;;;;;;1.60;1.30;;;23.00;80.70;;;;;;5000937;28;20470;-73
2022/06/06 13:10:14;;;;;;;1.60;1.10;;;23.10;80.90;;;;;;5012262;28;20487;-74
2022/06/06 13:13:29;;;;;;;4.00;1.60;;;23.20;80.90;;;;;;5012653;28;20548;-75
2022/06/06 13:16:05;;;;;;;4.60;1.13;;;23.10;79.70;;;;;;5006151;28;20880;-74
2022/06/06 13:18:52;;;;;;;3.03;1.17;;;23.10;80.10;;;;;;5014376;28;20453;-75
2022/06/06 13:21:33;;;;;;;3.33;1.97;;;22.90;79.90;;;;;;5007222;28;20829;-75
2022/06/06 13:24:19;;;;;;;1.37;1.00;;;23.00;79.20;;;;;;5009254;28;20447;-74
2022/06/06 13:26:48;;;;;;;1.47;1.07;;;22.80;78.90;;;;;;5012593;28;20531;-75
2022/06/06 13:29:29;;;;;;;4.60;1.00;;;23.10;78.10;;;;;;5017195;28;20483;-72
2022/06/06 13:32:09;;;;;;;6.40;1.37;;;23.20;77.60;;;;;;5009009;28;20981;-74
2022/06/06 13:34:53;;;;;;;2.80;1.20;;;23.30;76.70;;;;;;5005309;28;20464;-74
2022/06/06 13:37:35;;;;;;;2.60;1.13;;;23.60;76.40;;;;;;5012093;28;20443;-75
2022/06/06 13:40:28;;;;;;;3.50;1.13;;;23.80;75.50;;;;;;5015755;28;20457;-75
2022/06/06 13:43:27;;;;;;;1.60;1.10;;;23.50;75.00;;;;;;5008266;28;20895;-75
2022/06/06 13:46:08;;;;;;;6.83;1.67;;;23.20;75.90;;;;;;5012458;28;20811;-76
2022/06/06 13:48:58;;;;;;;3.43;0.93;;;23.20;77.90;;;;;;5012352;28;20495;-76
2022/06/06 13:51:39;;;;;;;1.43;0.90;;;23.20;76.70;;;;;;4996435;28;20793;-77
2022/06/06 13:54:07;;;;;;;5.10;1.33;;;23.10;77.10;;;;;;5010787;28;20538;-72
2022/06/06 13:56:59;;;;;;;2.10;1.23;;;22.80;77.10;;;;;;5020756;28;20528;-75
2022/06/06 13:59:57;;;;;;;3.40;1.00;;;22.90;78.10;;;;;;5015209;28;20475;-74
2022/06/06 14:02:49;;;;;;;1.27;0.87;;;22.80;78.50;;;;;;5050852;22;20493;-73
2022/06/06 14:05:42;;;;;;;1.80;1.20;;;22.70;78.20;;;;;;5027074;22;20569;-81
2022/06/06 14:08:12;;;;;;;2.43;1.57;;;22.90;78.70;;;;;;5020526;28;20459;-81
2022/06/06 14:10:58;;;;;;;1.20;0.90;;;22.80;78.50;;;;;;5008446;28;20485;-81
2022/06/06 14:13:39;;;;;;;3.27;1.23;;;22.70;79.10;;;;;;5003416;28;20526;-82
2022/06/06 14:16:23;;;;;;;1.40;1.10;;;22.70;78.70;;;;;;5008313;28;20992;-81
2022/06/06 14:18:52;;;;;;;2.20;1.07;;;22.80;79.20;;;;;;5010205;28;20467;-81